sensor_id;sensor_type;location;lat;lon;timestamp;P1;durP1;ratioP1;P2;durP2;ratioP2
8594;SDS011;4335;48.860;9.198;2024-03-23T00:54:51;10.40;;;7.27;;
8594;SDS011;4335;48.860;9.198;2024-03-23T00:57:21;9.37;;;6.83;;
8594;SDS011;4335;48.860;9.198;2024-03-23T00:59:51;9.03;;;7.10;;
8594;SDS011;4335;48.860;9.198;2024-03-23T01:02:21;12.50;;;6.70;;
8594;SDS011;4335;48.860;9.198;2024-03-23T01:04:47;9.43;;;6.60;;
8594;SDS011;4335;48.860;9.198;2024-03-23T01:07:15;14.77;;;7.00;;
8594;SDS011;4335;48.860;9.198;2024-03-23T01:09:42;10.90;;;7.17;;
8594;SDS011;4335;48.860;9.198;2024-03-23T01:12:13;9.27;;;6.70;;
8594;SDS011;4335;48.860;9.198;2024-03-23T01:14:42;9.90;;;6.87;;
8594;SDS011;4335;48.860;9.198;2024-03-23T01:17:15;7.90;;;6.03;;
8594;SDS011;4335;48.860;9.198;2024-03-23T01:19:41;6.77;;;5.73;;
8594;SDS011;4335;48.860;9.198;2024-03-23T01:22:09;8.70;;;6.43;;
8594;SDS011;4335;48.860;9.198;2024-03-23T01:24:38;8.93;;;6.47;;
8594;SDS011;4335;48.860;9.198;2024-03-23T01:27:10;8.70;;;6.37;;
8594;SDS011;4335;48.860;9.198;2024-03-23T01:29:36;7.07;;;5.97;;
8594;SDS011;4335;48.860;9.198;2024-03-23T01:32:04;10.47;;;6.63;;
8594;SDS011;4335;48.860;9.198;2024-03-23T01:34:33;8.23;;;6.50;;
8594;SDS011;4335;48.860;9.198;2024-03-23T01:37:08;10.37;;;6.57;;
8594;SDS011;4335;48.860;9.198;2024-03-23T01:39:34;7.87;;;6.40;;
8594;SDS011;4335;48.860;9.198;2024-03-23T01:42:02;8.33;;;6.53;;
8594;SDS011;4335;48.860;9.198;2024-03-23T01:44:38;7.77;;;6.87;;
8594;SDS011;4335;48.860;9.198;2024-03-23T01:47:06;7.80;;;6.20;;
8594;SDS011;4335;48.860;9.198;2024-03-23T01:49:32;9.90;;;6.77;;
8594;SDS011;4335;48.860;9.198;2024-03-23T01:52:03;10.40;;;6.27;;
8594;SDS011;4335;48.860;9.198;2024-03-23T01:54:30;8.57;;;5.73;;
8594;SDS011;4335;48.860;9.198;2024-03-23T01:57:01;6.10;;;4.30;;
8594;SDS011;4335;48.860;9.198;2024-03-23T01:59:31;6.27;;;4.00;;
8594;SDS011;4335;48.860;9.198;2024-03-23T02:02:02;4.50;;;3.60;;
8594;SDS011;4335;48.860;9.198;2024-03-23T02:04:34;4.97;;;3.07;;
8594;SDS011;4335;48.860;9.198;2024-03-23T02:07:01;3.37;;;2.93;;
8594;SDS011;4335;48.860;9.198;2024-03-23T02:09:30;3.60;;;2.70;;
8594;SDS011;4335;48.860;9.198;2024-03-23T02:11:58;4.07;;;2.87;;
8594;SDS011;4335;48.860;9.198;2024-03-23T02:14:28;4.73;;;3.10;;
8594;SDS011;4335;48.860;9.198;2024-03-23T02:16:56;4.10;;;2.50;;
8594;SDS011;4335;48.860;9.198;2024-03-23T02:19:25;2.77;;;2.37;;
8594;SDS011;4335;48.860;9.198;2024-03-23T02:21:53;3.90;;;2.63;;
8594;SDS011;4335;48.860;9.198;2024-03-23T02:24:22;2.87;;;2.60;;
8594;SDS011;4335;48.860;9.198;2024-03-23T02:26:48;3.40;;;2.87;;
8594;SDS011;4335;48.860;9.198;2024-03-23T02:29:15;3.10;;;2.60;;
8594;SDS011;4335;48.860;9.198;2024-03-23T02:31:48;3.47;;;2.40;;
8594;SDS011;4335;48.860;9.198;2024-03-23T02:34:15;2.73;;;2.50;;
8594;SDS011;4335;48.860;9.198;2024-03-23T02:36:42;3.23;;;2.87;;
8594;SDS011;4335;48.860;9.198;2024-03-23T02:39:09;4.00;;;2.60;;
8594;SDS011;4335;48.860;9.198;2024-03-23T02:41:40;2.97;;;2.40;;
8594;SDS011;4335;48.860;9.198;2024-03-23T02:44:07;2.93;;;2.53;;
8594;SDS011;4335;48.860;9.198;2024-03-23T02:46:36;2.80;;;2.40;;
8594;SDS011;4335;48.860;9.198;2024-03-23T02:49:04;2.93;;;2.70;;
8594;SDS011;4335;48.860;9.198;2024-03-23T02:51:30;4.33;;;2.67;;
8594;SDS011;4335;48.860;9.198;2024-03-23T02:53:58;3.47;;;2.60;;
8594;SDS011;4335;48.860;9.198;2024-03-23T02:56:24;3.10;;;2.80;;
8594;SDS011;4335;48.860;9.198;2024-03-23T02:58:56;2.93;;;2.60;;
8594;SDS011;4335;48.860;9.198;2024-03-23T03:01:22;4.33;;;2.80;;
8594;SDS011;4335;48.860;9.198;2024-03-23T03:03:54;4.47;;;2.70;;
8594;SDS011;4335;48.860;9.198;2024-03-23T03:06:26;2.70;;;2.40;;
8594;SDS011;4335;48.860;9.198;2024-03-23T03:08:56;3.43;;;2.60;;
8594;SDS011;4335;48.860;9.198;2024-03-23T03:11:29;3.53;;;2.60;;
8594;SDS011;4335;48.860;9.198;2024-03-23T03:14:01;3.20;;;2.37;;
8594;SDS011;4335;48.860;9.198;2024-03-23T03:16:28;4.87;;;2.60;;
8594;SDS011;4335;48.860;9.198;2024-03-23T03:18:56;3.17;;;2.43;;
8594;SDS011;4335;48.860;9.198;2024-03-23T03:21:22;3.40;;;2.40;;
8594;SDS011;4335;48.860;9.198;2024-03-23T03:23:49;4.97;;;2.90;;
8594;SDS011;4335;48.860;9.198;2024-03-23T03:26:16;3.00;;;2.70;;
8594;SDS011;4335;48.860;9.198;2024-03-23T03:28:43;5.17;;;2.87;;
8594;SDS011;4335;48.860;9.198;2024-03-23T03:31:15;3.60;;;2.60;;
8594;SDS011;4335;48.860;9.198;2024-03-23T03:33:45;2.90;;;2.40;;
8594;SDS011;4335;48.860;9.198;2024-03-23T03:36:14;3.30;;;2.50;;
8594;SDS011;4335;48.860;9.198;2024-03-23T03:38:42;2.83;;;2.30;;
8594;SDS011;4335;48.860;9.198;2024-03-23T03:41:08;4.27;;;2.30;;
8594;SDS011;4335;48.860;9.198;2024-03-23T03:43:38;2.50;;;2.30;;
8594;SDS011;4335;48.860;9.198;2024-03-23T03:46:07;2.77;;;2.57;;
8594;SDS011;4335;48.860;9.198;2024-03-23T03:48:37;3.27;;;2.40;;
8594;SDS011;4335;48.860;9.198;2024-03-23T03:51:09;4.17;;;3.00;;
8594;SDS011;4335;48.860;9.198;2024-03-23T03:53:40;5.30;;;2.50;;
8594;SDS011;4335;48.860;9.198;2024-03-23T03:56:12;2.57;;;2.30;;
8594;SDS011;4335;48.860;9.198;2024-03-23T03:58:58;4.33;;;2.73;;
8594;SDS011;4335;48.860;9.198;2024-03-23T04:01:28;4.77;;;2.27;;
8594;SDS011;4335;48.860;9.198;2024-03-23T04:04:00;2.60;;;2.40;;
8594;SDS011;4335;48.860;9.198;2024-03-23T04:06:26;3.60;;;2.43;;
8594;SDS011;4335;48.860;9.198;2024-03-23T04:08:58;3.83;;;2.77;;
8594;SDS011;4335;48.860;9.198;2024-03-23T04:11:25;4.40;;;2.83;;
8594;SDS011;4335;48.860;9.198;2024-03-23T04:13:51;2.93;;;2.73;;
8594;SDS011;4335;48.860;9.198;2024-03-23T04:16:25;3.67;;;2.57;;
8594;SDS011;4335;48.860;9.198;2024-03-23T04:18:52;2.90;;;2.70;;
8594;SDS011;4335;48.860;9.198;2024-03-23T04:21:19;4.63;;;2.80;;
8594;SDS011;4335;48.860;9.198;2024-03-23T04:23:50;3.13;;;2.83;;
8594;SDS011;4335;48.860;9.198;2024-03-23T04:26:16;3.57;;;2.73;;
8594;SDS011;4335;48.860;9.198;2024-03-23T04:28:43;3.20;;;2.90;;
8594;SDS011;4335;48.860;9.198;2024-03-23T04:31:16;3.67;;;2.77;;
8594;SDS011;4335;48.860;9.198;2024-03-23T04:33:44;3.63;;;3.00;;
8594;SDS011;4335;48.860;9.198;2024-03-23T04:36:13;4.40;;;3.57;;
8594;SDS011;4335;48.860;9.198;2024-03-23T04:38:42;5.70;;;3.70;;
8594;SDS011;4335;48.860;9.198;2024-03-23T04:41:15;5.77;;;4.03;;
8594;SDS011;4335;48.860;9.198;2024-03-23T04:43:44;5.40;;;3.70;;
8594;SDS011;4335;48.860;9.198;2024-03-23T04:46:17;6.23;;;5.03;;
8594;SDS011;4335;48.860;9.198;2024-03-23T04:48:52;6.57;;;5.47;;
8594;SDS011;4335;48.860;9.198;2024-03-23T04:51:22;8.13;;;6.77;;
8594;SDS011;4335;48.860;9.198;2024-03-23T04:53:49;10.53;;;6.87;;
8594;SDS011;4335;48.860;9.198;2024-03-23T04:56:16;8.93;;;7.47;;
8594;SDS011;4335;48.860;9.198;2024-03-23T04:58:43;9.27;;;7.73;;
8594;SDS011;4335;48.860;9.198;2024-03-23T05:01:10;9.50;;;8.17;;
8594;SDS011;4335;48.860;9.198;2024-03-23T05:03:43;10.40;;;8.37;;
8594;SDS011;4335;48.860;9.198;2024-03-23T05:06:25;11.77;;;9.60;;
8594;SDS011;4335;48.860;9.198;2024-03-23T05:08:52;10.73;;;8.97;;
8594;SDS011;4335;48.860;9.198;2024-03-23T05:11:18;10.80;;;9.33;;
8594;SDS011;4335;48.860;9.198;2024-03-23T05:13:49;11.70;;;9.37;;
8594;SDS011;4335;48.860;9.198;2024-03-23T05:16:15;11.87;;;9.90;;
8594;SDS011;4335;48.860;9.198;2024-03-23T05:18:42;12.87;;;9.50;;
8594;SDS011;4335;48.860;9.198;2024-03-23T05:21:09;12.70;;;10.03;;
8594;SDS011;4335;48.860;9.198;2024-03-23T05:23:38;10.77;;;8.97;;
8594;SDS011;4335;48.860;9.198;2024-03-23T05:26:05;12.57;;;9.60;;
8594;SDS011;4335;48.860;9.198;2024-03-23T05:28:35;12.47;;;9.40;;
8594;SDS011;4335;48.860;9.198;2024-03-23T05:31:02;10.97;;;9.07;;
8594;SDS011;4335;48.860;9.198;2024-03-23T05:33:31;13.43;;;9.80;;
8594;SDS011;4335;48.860;9.198;2024-03-23T05:35:58;13.00;;;10.13;;
8594;SDS011;4335;48.860;9.198;2024-03-23T05:38:26;11.63;;;8.80;;
8594;SDS011;4335;48.860;9.198;2024-03-23T05:40:53;11.27;;;9.13;;
8594;SDS011;4335;48.860;9.198;2024-03-23T05:43:20;11.53;;;8.77;;
8594;SDS011;4335;48.860;9.198;2024-03-23T05:45:55;9.63;;;7.57;;
8594;SDS011;4335;48.860;9.198;2024-03-23T05:48:21;7.70;;;6.23;;
8594;SDS011;4335;48.860;9.198;2024-03-23T05:50:49;6.67;;;4.50;;
8594;SDS011;4335;48.860;9.198;2024-03-23T05:53:16;6.00;;;5.30;;
8594;SDS011;4335;48.860;9.198;2024-03-23T05:55:46;6.97;;;4.97;;
8594;SDS011;4335;48.860;9.198;2024-03-23T05:58:14;4.67;;;4.00;;
8594;SDS011;4335;48.860;9.198;2024-03-23T06:00:41;6.03;;;4.80;;
8594;SDS011;4335;48.860;9.198;2024-03-23T06:03:14;5.47;;;4.60;;
8594;SDS011;4335;48.860;9.198;2024-03-23T06:05:43;5.50;;;4.43;;
8594;SDS011;4335;48.860;9.198;2024-03-23T06:08:10;6.10;;;4.97;;
8594;SDS011;4335;48.860;9.198;2024-03-23T06:10:40;6.67;;;4.50;;
8594;SDS011;4335;48.860;9.198;2024-03-23T06:13:07;6.17;;;4.67;;
8594;SDS011;4335;48.860;9.198;2024-03-23T06:15:43;6.30;;;5.03;;
8594;SDS011;4335;48.860;9.198;2024-03-23T06:18:11;6.03;;;4.60;;
8594;SDS011;4335;48.860;9.198;2024-03-23T06:20:41;5.93;;;4.00;;
8594;SDS011;4335;48.860;9.198;2024-03-23T06:23:13;4.90;;;3.97;;
8594;SDS011;4335;48.860;9.198;2024-03-23T06:25:46;6.87;;;3.90;;
8594;SDS011;4335;48.860;9.198;2024-03-23T06:28:19;4.43;;;3.80;;
8594;SDS011;4335;48.860;9.198;2024-03-23T06:30:46;4.60;;;3.70;;
8594;SDS011;4335;48.860;9.198;2024-03-23T06:33:13;5.40;;;3.40;;
8594;SDS011;4335;48.860;9.198;2024-03-23T06:35:40;3.53;;;3.10;;
8594;SDS011;4335;48.860;9.198;2024-03-23T06:38:09;3.87;;;3.07;;
8594;SDS011;4335;48.860;9.198;2024-03-23T06:40:42;3.00;;;2.70;;
8594;SDS011;4335;48.860;9.198;2024-03-23T06:43:12;4.67;;;3.03;;
8594;SDS011;4335;48.860;9.198;2024-03-23T06:45:40;2.80;;;2.50;;
8594;SDS011;4335;48.860;9.198;2024-03-23T06:48:06;2.90;;;2.50;;
8594;SDS011;4335;48.860;9.198;2024-03-23T06:50:33;3.33;;;2.30;;
8594;SDS011;4335;48.860;9.198;2024-03-23T06:52:59;2.90;;;2.30;;
8594;SDS011;4335;48.860;9.198;2024-03-23T06:55:37;2.80;;;2.20;;
8594;SDS011;4335;48.860;9.198;2024-03-23T06:58:04;2.10;;;1.70;;
8594;SDS011;4335;48.860;9.198;2024-03-23T07:00:37;1.90;;;1.60;;
8594;SDS011;4335;48.860;9.198;2024-03-23T07:03:14;1.70;;;1.60;;
8594;SDS011;4335;48.860;9.198;2024-03-23T07:05:41;1.60;;;1.50;;
8594;SDS011;4335;48.860;9.198;2024-03-23T07:08:13;1.60;;;1.50;;
8594;SDS011;4335;48.860;9.198;2024-03-23T07:10:49;1.50;;;1.40;;
8594;SDS011;4335;48.860;9.198;2024-03-23T07:13:18;1.37;;;1.27;;
8594;SDS011;4335;48.860;9.198;2024-03-23T07:15:53;1.10;;;1.10;;
8594;SDS011;4335;48.860;9.198;2024-03-23T07:18:30;1.33;;;1.23;;
8594;SDS011;4335;48.860;9.198;2024-03-23T07:20:57;1.57;;;1.30;;
8594;SDS011;4335;48.860;9.198;2024-03-23T07:23:33;1.80;;;1.47;;
8594;SDS011;4335;48.860;9.198;2024-03-23T07:26:00;1.77;;;1.50;;
8594;SDS011;4335;48.860;9.198;2024-03-23T07:28:27;1.47;;;1.10;;
8594;SDS011;4335;48.860;9.198;2024-03-23T07:31:03;1.37;;;1.27;;
8594;SDS011;4335;48.860;9.198;2024-03-23T07:33:31;2.10;;;1.20;;
8594;SDS011;4335;48.860;9.198;2024-03-23T07:36:04;1.33;;;1.23;;
8594;SDS011;4335;48.860;9.198;2024-03-23T07:38:31;1.30;;;1.20;;
8594;SDS011;4335;48.860;9.198;2024-03-23T07:41:06;1.17;;;1.07;;
8594;SDS011;4335;48.860;9.198;2024-03-23T07:43:37;1.63;;;1.03;;
8594;SDS011;4335;48.860;9.198;2024-03-23T07:46:07;1.20;;;1.10;;
8594;SDS011;4335;48.860;9.198;2024-03-23T07:48:38;1.40;;;1.30;;
8594;SDS011;4335;48.860;9.198;2024-03-23T07:51:08;1.20;;;1.10;;
8594;SDS011;4335;48.860;9.198;2024-03-23T07:53:51;1.23;;;1.13;;
8594;SDS011;4335;48.860;9.198;2024-03-23T07:56:25;1.73;;;1.30;;
8594;SDS011;4335;48.860;9.198;2024-03-23T07:58:57;1.53;;;1.00;;
8594;SDS011;4335;48.860;9.198;2024-03-23T08:01:24;1.20;;;1.10;;
8594;SDS011;4335;48.860;9.198;2024-03-23T08:03:51;1.00;;;0.90;;
8594;SDS011;4335;48.860;9.198;2024-03-23T08:06:19;3.60;;;1.63;;
8594;SDS011;4335;48.860;9.198;2024-03-23T08:08:51;2.57;;;2.07;;
8594;SDS011;4335;48.860;9.198;2024-03-23T08:11:28;1.97;;;1.67;;
8594;SDS011;4335;48.860;9.198;2024-03-23T08:13:57;1.50;;;1.40;;
8594;SDS011;4335;48.860;9.198;2024-03-23T08:16:27;1.53;;;1.43;;
8594;SDS011;4335;48.860;9.198;2024-03-23T08:19:01;1.30;;;1.20;;
8594;SDS011;4335;48.860;9.198;2024-03-23T08:21:29;1.17;;;1.07;;
8594;SDS011;4335;48.860;9.198;2024-03-23T08:23:58;1.10;;;1.00;;
8594;SDS011;4335;48.860;9.198;2024-03-23T08:26:25;1.30;;;1.20;;
8594;SDS011;4335;48.860;9.198;2024-03-23T08:28:52;0.80;;;0.80;;
8594;SDS011;4335;48.860;9.198;2024-03-23T08:31:18;1.37;;;1.20;;
8594;SDS011;4335;48.860;9.198;2024-03-23T08:33:45;1.77;;;1.20;;
8594;SDS011;4335;48.860;9.198;2024-03-23T08:36:13;1.33;;;1.17;;
8594;SDS011;4335;48.860;9.198;2024-03-23T08:38:43;1.30;;;1.20;;
8594;SDS011;4335;48.860;9.198;2024-03-23T08:41:12;1.47;;;1.30;;
8594;SDS011;4335;48.860;9.198;2024-03-23T08:43:39;1.30;;;1.20;;
8594;SDS011;4335;48.860;9.198;2024-03-23T08:46:06;2.53;;;1.60;;
8594;SDS011;4335;48.860;9.198;2024-03-23T08:48:38;3.23;;;2.47;;
8594;SDS011;4335;48.860;9.198;2024-03-23T08:51:06;2.83;;;2.53;;
8594;SDS011;4335;48.860;9.198;2024-03-23T08:53:35;2.10;;;1.90;;
8594;SDS011;4335;48.860;9.198;2024-03-23T08:56:03;3.33;;;1.77;;
8594;SDS011;4335;48.860;9.198;2024-03-23T08:58:34;4.50;;;2.10;;
8594;SDS011;4335;48.860;9.198;2024-03-23T09:01:06;3.30;;;1.73;;
8594;SDS011;4335;48.860;9.198;2024-03-23T09:03:39;3.57;;;1.80;;
8594;SDS011;4335;48.860;9.198;2024-03-23T09:06:06;3.53;;;1.97;;
8594;SDS011;4335;48.860;9.198;2024-03-23T09:08:34;1.70;;;1.60;;
8594;SDS011;4335;48.860;9.198;2024-03-23T09:11:03;3.90;;;2.50;;
8594;SDS011;4335;48.860;9.198;2024-03-23T09:13:31;2.60;;;2.23;;
8594;SDS011;4335;48.860;9.198;2024-03-23T09:15:58;5.47;;;2.20;;
8594;SDS011;4335;48.860;9.198;2024-03-23T09:18:25;3.80;;;2.10;;
8594;SDS011;4335;48.860;9.198;2024-03-23T09:20:51;4.33;;;2.43;;
8594;SDS011;4335;48.860;9.198;2024-03-23T09:23:19;4.53;;;2.77;;
8594;SDS011;4335;48.860;9.198;2024-03-23T09:25:47;3.70;;;2.70;;
8594;SDS011;4335;48.860;9.198;2024-03-23T09:28:16;3.93;;;2.80;;
8594;SDS011;4335;48.860;9.198;2024-03-23T09:30:43;5.23;;;3.03;;
8594;SDS011;4335;48.860;9.198;2024-03-23T09:33:09;6.00;;;2.90;;
8594;SDS011;4335;48.860;9.198;2024-03-23T09:35:39;4.37;;;2.83;;
8594;SDS011;4335;48.860;9.198;2024-03-23T09:38:09;3.77;;;2.90;;
8594;SDS011;4335;48.860;9.198;2024-03-23T09:40:39;4.97;;;2.20;;
8594;SDS011;4335;48.860;9.198;2024-03-23T09:43:08;5.73;;;2.63;;
8594;SDS011;4335;48.860;9.198;2024-03-23T09:45:36;4.80;;;3.03;;
8594;SDS011;4335;48.860;9.198;2024-03-23T09:48:05;6.73;;;2.90;;
8594;SDS011;4335;48.860;9.198;2024-03-23T09:50:37;6.83;;;3.17;;
8594;SDS011;4335;48.860;9.198;2024-03-23T09:53:04;6.33;;;2.63;;
8594;SDS011;4335;48.860;9.198;2024-03-23T09:55:31;7.20;;;2.50;;
8594;SDS011;4335;48.860;9.198;2024-03-23T09:57:59;5.53;;;3.00;;
8594;SDS011;4335;48.860;9.198;2024-03-23T10:00:26;3.50;;;2.53;;
8594;SDS011;4335;48.860;9.198;2024-03-23T10:02:54;4.67;;;2.50;;
8594;SDS011;4335;48.860;9.198;2024-03-23T10:05:21;6.13;;;3.40;;
8594;SDS011;4335;48.860;9.198;2024-03-23T10:07:49;4.83;;;3.20;;
8594;SDS011;4335;48.860;9.198;2024-03-23T10:10:15;5.00;;;3.20;;
8594;SDS011;4335;48.860;9.198;2024-03-23T10:12:46;5.43;;;2.87;;
8594;SDS011;4335;48.860;9.198;2024-03-23T10:15:19;6.40;;;3.27;;
8594;SDS011;4335;48.860;9.198;2024-03-23T10:17:51;7.00;;;3.03;;
8594;SDS011;4335;48.860;9.198;2024-03-23T10:20:22;4.47;;;2.90;;
8594;SDS011;4335;48.860;9.198;2024-03-23T10:22:49;4.97;;;2.70;;
8594;SDS011;4335;48.860;9.198;2024-03-23T10:25:17;5.60;;;3.13;;
8594;SDS011;4335;48.860;9.198;2024-03-23T10:27:58;4.87;;;2.70;;
8594;SDS011;4335;48.860;9.198;2024-03-23T10:30:27;6.20;;;3.30;;
8594;SDS011;4335;48.860;9.198;2024-03-23T10:33:07;5.07;;;3.17;;
8594;SDS011;4335;48.860;9.198;2024-03-23T10:35:43;7.53;;;3.70;;
8594;SDS011;4335;48.860;9.198;2024-03-23T10:38:14;5.50;;;2.77;;
8594;SDS011;4335;48.860;9.198;2024-03-23T10:40:41;7.83;;;2.93;;
8594;SDS011;4335;48.860;9.198;2024-03-23T10:43:08;3.83;;;2.40;;
8594;SDS011;4335;48.860;9.198;2024-03-23T10:45:35;5.30;;;2.90;;
8594;SDS011;4335;48.860;9.198;2024-03-23T10:48:02;8.00;;;3.30;;
8594;SDS011;4335;48.860;9.198;2024-03-23T10:50:33;3.83;;;3.07;;
8594;SDS011;4335;48.860;9.198;2024-03-23T10:53:03;7.23;;;3.37;;
8594;SDS011;4335;48.860;9.198;2024-03-23T10:55:30;4.30;;;3.37;;
8594;SDS011;4335;48.860;9.198;2024-03-23T10:58:04;7.27;;;3.40;;
8594;SDS011;4335;48.860;9.198;2024-03-23T11:00:30;7.43;;;3.43;;
8594;SDS011;4335;48.860;9.198;2024-03-23T11:03:01;5.57;;;3.40;;
8594;SDS011;4335;48.860;9.198;2024-03-23T11:06:00;5.70;;;4.00;;
8594;SDS011;4335;48.860;9.198;2024-03-23T11:08:32;8.93;;;5.00;;
8594;SDS011;4335;48.860;9.198;2024-03-23T11:13:50;6.47;;;3.93;;
8594;SDS011;4335;48.860;9.198;2024-03-23T11:16:21;7.77;;;4.77;;
8594;SDS011;4335;48.860;9.198;2024-03-23T11:18:49;8.90;;;4.30;;
8594;SDS011;4335;48.860;9.198;2024-03-23T11:24:26;6.03;;;3.63;;
8594;SDS011;4335;48.860;9.198;2024-03-23T11:26:52;7.80;;;4.33;;
8594;SDS011;4335;48.860;9.198;2024-03-23T11:29:19;5.07;;;3.00;;
8594;SDS011;4335;48.860;9.198;2024-03-23T11:31:48;5.17;;;3.60;;
8594;SDS011;4335;48.860;9.198;2024-03-23T11:34:16;5.83;;;3.40;;
8594;SDS011;4335;48.860;9.198;2024-03-23T11:36:43;5.60;;;3.53;;
8594;SDS011;4335;48.860;9.198;2024-03-23T11:39:13;4.10;;;2.73;;
8594;SDS011;4335;48.860;9.198;2024-03-23T11:41:48;8.00;;;3.47;;
8594;SDS011;4335;48.860;9.198;2024-03-23T11:44:19;4.33;;;3.37;;
8594;SDS011;4335;48.860;9.198;2024-03-23T11:46:47;5.97;;;3.07;;
8594;SDS011;4335;48.860;9.198;2024-03-23T11:49:21;4.50;;;3.10;;
8594;SDS011;4335;48.860;9.198;2024-03-23T11:51:48;3.50;;;2.43;;
8594;SDS011;4335;48.860;9.198;2024-03-23T11:54:16;7.47;;;2.93;;
8594;SDS011;4335;48.860;9.198;2024-03-23T11:56:55;5.93;;;3.50;;
8594;SDS011;4335;48.860;9.198;2024-03-23T11:59:32;3.17;;;2.63;;
8594;SDS011;4335;48.860;9.198;2024-03-23T12:02:06;3.00;;;2.10;;
8594;SDS011;4335;48.860;9.198;2024-03-23T12:04:33;2.97;;;2.67;;
8594;SDS011;4335;48.860;9.198;2024-03-23T12:07:13;3.80;;;2.67;;
8594;SDS011;4335;48.860;9.198;2024-03-23T12:09:43;5.37;;;2.70;;
8594;SDS011;4335;48.860;9.198;2024-03-23T12:12:15;4.63;;;2.33;;
8594;SDS011;4335;48.860;9.198;2024-03-23T12:14:45;3.10;;;1.90;;
8594;SDS011;4335;48.860;9.198;2024-03-23T12:17:27;4.50;;;3.27;;
8594;SDS011;4335;48.860;9.198;2024-03-23T12:19:54;4.20;;;1.83;;
8594;SDS011;4335;48.860;9.198;2024-03-23T12:22:26;5.93;;;2.17;;
8594;SDS011;4335;48.860;9.198;2024-03-23T12:24:54;3.43;;;2.27;;
8594;SDS011;4335;48.860;9.198;2024-03-23T12:27:22;4.07;;;2.20;;
8594;SDS011;4335;48.860;9.198;2024-03-23T12:29:49;4.10;;;2.23;;
8594;SDS011;4335;48.860;9.198;2024-03-23T12:32:15;3.53;;;1.90;;
8594;SDS011;4335;48.860;9.198;2024-03-23T12:34:42;2.63;;;1.97;;
8594;SDS011;4335;48.860;9.198;2024-03-23T12:37:11;4.87;;;2.43;;
8594;SDS011;4335;48.860;9.198;2024-03-23T12:39:38;6.07;;;3.13;;
8594;SDS011;4335;48.860;9.198;2024-03-23T12:42:05;8.33;;;3.10;;
8594;SDS011;4335;48.860;9.198;2024-03-23T12:44:32;7.07;;;2.90;;
8594;SDS011;4335;48.860;9.198;2024-03-23T12:46:59;4.20;;;2.87;;
8594;SDS011;4335;48.860;9.198;2024-03-23T12:49:25;6.63;;;2.40;;
8594;SDS011;4335;48.860;9.198;2024-03-23T12:51:55;6.10;;;2.60;;
8594;SDS011;4335;48.860;9.198;2024-03-23T12:54:28;4.47;;;2.57;;
8594;SDS011;4335;48.860;9.198;2024-03-23T12:56:59;7.80;;;2.43;;
8594;SDS011;4335;48.860;9.198;2024-03-23T12:59:27;6.40;;;2.23;;
8594;SDS011;4335;48.860;9.198;2024-03-23T13:01:57;6.07;;;1.97;;
8594;SDS011;4335;48.860;9.198;2024-03-23T13:04:30;4.53;;;2.70;;
8594;SDS011;4335;48.860;9.198;2024-03-23T13:06:56;5.77;;;2.40;;
8594;SDS011;4335;48.860;9.198;2024-03-23T13:09:23;4.37;;;2.90;;
8594;SDS011;4335;48.860;9.198;2024-03-23T13:11:49;5.80;;;2.77;;
8594;SDS011;4335;48.860;9.198;2024-03-23T13:14:19;5.60;;;2.80;;
8594;SDS011;4335;48.860;9.198;2024-03-23T13:16:46;4.93;;;2.43;;
8594;SDS011;4335;48.860;9.198;2024-03-23T13:19:14;7.77;;;2.60;;
8594;SDS011;4335;48.860;9.198;2024-03-23T13:21:44;6.17;;;2.50;;
8594;SDS011;4335;48.860;9.198;2024-03-23T13:24:11;4.73;;;2.67;;
8594;SDS011;4335;48.860;9.198;2024-03-23T13:26:41;5.37;;;2.57;;
8594;SDS011;4335;48.860;9.198;2024-03-23T13:29:10;4.27;;;2.20;;
8594;SDS011;4335;48.860;9.198;2024-03-23T13:31:40;3.90;;;2.37;;
8594;SDS011;4335;48.860;9.198;2024-03-23T13:34:06;4.40;;;2.43;;
8594;SDS011;4335;48.860;9.198;2024-03-23T13:36:34;3.77;;;2.50;;
8594;SDS011;4335;48.860;9.198;2024-03-23T13:39:09;8.00;;;2.87;;
8594;SDS011;4335;48.860;9.198;2024-03-23T13:41:37;4.27;;;2.50;;
8594;SDS011;4335;48.860;9.198;2024-03-23T13:44:11;7.37;;;2.73;;
8594;SDS011;4335;48.860;9.198;2024-03-23T13:46:39;5.50;;;2.17;;
8594;SDS011;4335;48.860;9.198;2024-03-23T13:49:08;5.87;;;2.10;;
8594;SDS011;4335;48.860;9.198;2024-03-23T13:51:52;4.43;;;2.30;;
8594;SDS011;4335;48.860;9.198;2024-03-23T13:54:19;6.07;;;2.00;;
8594;SDS011;4335;48.860;9.198;2024-03-23T13:56:55;3.70;;;1.90;;
8594;SDS011;4335;48.860;9.198;2024-03-23T13:59:22;3.37;;;1.50;;
8594;SDS011;4335;48.860;9.198;2024-03-23T14:01:53;3.63;;;2.10;;
8594;SDS011;4335;48.860;9.198;2024-03-23T14:04:19;4.17;;;2.07;;
8594;SDS011;4335;48.860;9.198;2024-03-23T14:06:46;3.67;;;2.10;;
8594;SDS011;4335;48.860;9.198;2024-03-23T14:09:16;4.77;;;2.10;;
8594;SDS011;4335;48.860;9.198;2024-03-23T14:11:46;4.67;;;2.53;;
8594;SDS011;4335;48.860;9.198;2024-03-23T14:14:18;4.50;;;2.10;;
8594;SDS011;4335;48.860;9.198;2024-03-23T14:16:50;5.63;;;2.77;;
8594;SDS011;4335;48.860;9.198;2024-03-23T14:19:16;4.67;;;2.87;;
8594;SDS011;4335;48.860;9.198;2024-03-23T14:21:45;4.00;;;2.10;;
8594;SDS011;4335;48.860;9.198;2024-03-23T14:24:11;5.13;;;2.03;;
8594;SDS011;4335;48.860;9.198;2024-03-23T14:26:38;3.90;;;1.50;;
8594;SDS011;4335;48.860;9.198;2024-03-23T14:29:06;6.27;;;1.90;;
8594;SDS011;4335;48.860;9.198;2024-03-23T14:31:42;2.53;;;1.73;;
8594;SDS011;4335;48.860;9.198;2024-03-23T14:34:08;2.80;;;1.50;;
8594;SDS011;4335;48.860;9.198;2024-03-23T14:36:38;1.77;;;1.50;;
8594;SDS011;4335;48.860;9.198;2024-03-23T14:39:07;2.83;;;1.73;;
8594;SDS011;4335;48.860;9.198;2024-03-23T14:41:34;2.20;;;1.57;;
8594;SDS011;4335;48.860;9.198;2024-03-23T14:44:07;3.60;;;1.83;;
8594;SDS011;4335;48.860;9.198;2024-03-23T14:46:34;4.00;;;2.00;;
8594;SDS011;4335;48.860;9.198;2024-03-23T14:49:06;1.63;;;1.40;;
8594;SDS011;4335;48.860;9.198;2024-03-23T14:51:36;3.27;;;1.90;;
8594;SDS011;4335;48.860;9.198;2024-03-23T14:54:06;4.27;;;2.00;;
8594;SDS011;4335;48.860;9.198;2024-03-23T14:56:33;3.30;;;1.67;;
8594;SDS011;4335;48.860;9.198;2024-03-23T14:59:03;6.23;;;2.10;;
8594;SDS011;4335;48.860;9.198;2024-03-23T15:01:32;3.70;;;2.07;;
8594;SDS011;4335;48.860;9.198;2024-03-23T15:04:02;4.07;;;2.13;;
8594;SDS011;4335;48.860;9.198;2024-03-23T15:06:29;4.93;;;2.70;;
8594;SDS011;4335;48.860;9.198;2024-03-23T15:08:59;4.37;;;1.73;;
8594;SDS011;4335;48.860;9.198;2024-03-23T15:11:25;2.50;;;1.57;;
8594;SDS011;4335;48.860;9.198;2024-03-23T15:13:54;2.67;;;1.70;;
8594;SDS011;4335;48.860;9.198;2024-03-23T15:16:22;1.57;;;1.47;;
8594;SDS011;4335;48.860;9.198;2024-03-23T15:18:48;3.27;;;1.90;;
8594;SDS011;4335;48.860;9.198;2024-03-23T15:21:17;3.83;;;2.00;;
8594;SDS011;4335;48.860;9.198;2024-03-23T15:23:49;3.13;;;2.20;;
8594;SDS011;4335;48.860;9.198;2024-03-23T15:26:16;3.77;;;1.80;;
8594;SDS011;4335;48.860;9.198;2024-03-23T15:28:42;2.13;;;1.50;;
8594;SDS011;4335;48.860;9.198;2024-03-23T15:31:32;2.57;;;1.73;;
8594;SDS011;4335;48.860;9.198;2024-03-23T15:33:59;4.00;;;1.60;;
8594;SDS011;4335;48.860;9.198;2024-03-23T15:36:26;2.80;;;1.60;;
8594;SDS011;4335;48.860;9.198;2024-03-23T15:38:52;3.80;;;1.70;;
8594;SDS011;4335;48.860;9.198;2024-03-23T15:41:20;1.77;;;1.37;;
8594;SDS011;4335;48.860;9.198;2024-03-23T15:43:48;2.00;;;1.70;;
8594;SDS011;4335;48.860;9.198;2024-03-23T15:46:15;4.80;;;2.23;;
8594;SDS011;4335;48.860;9.198;2024-03-23T15:48:45;3.70;;;1.47;;
8594;SDS011;4335;48.860;9.198;2024-03-23T15:51:15;5.17;;;1.80;;
8594;SDS011;4335;48.860;9.198;2024-03-23T15:53:43;4.07;;;1.43;;
8594;SDS011;4335;48.860;9.198;2024-03-23T15:56:16;2.00;;;1.40;;
8594;SDS011;4335;48.860;9.198;2024-03-23T15:58:42;2.63;;;1.57;;
8594;SDS011;4335;48.860;9.198;2024-03-23T16:01:09;1.83;;;1.40;;
8594;SDS011;4335;48.860;9.198;2024-03-23T16:03:36;2.57;;;1.50;;
8594;SDS011;4335;48.860;9.198;2024-03-23T16:06:07;2.30;;;1.53;;
8594;SDS011;4335;48.860;9.198;2024-03-23T16:08:36;3.30;;;1.43;;
8594;SDS011;4335;48.860;9.198;2024-03-23T16:11:07;5.70;;;2.00;;
8594;SDS011;4335;48.860;9.198;2024-03-23T16:13:39;3.90;;;1.60;;
8594;SDS011;4335;48.860;9.198;2024-03-23T16:16:12;2.77;;;1.43;;
8594;SDS011;4335;48.860;9.198;2024-03-23T16:18:42;2.63;;;1.80;;
8594;SDS011;4335;48.860;9.198;2024-03-23T16:21:13;2.13;;;1.60;;
8594;SDS011;4335;48.860;9.198;2024-03-23T16:23:39;1.83;;;1.53;;
8594;SDS011;4335;48.860;9.198;2024-03-23T16:26:10;1.87;;;1.53;;
8594;SDS011;4335;48.860;9.198;2024-03-23T16:28:40;2.00;;;1.80;;